sensor_id;sensor_type;location;lat;lon;timestamp;P1;durP1;ratioP1;P2;durP2;ratioP2
25409;SDS011;13339;50.840;4.346;2023-09-19T00:02:16;14.07;;;2.97;;
25409;SDS011;13339;50.840;4.346;2023-09-19T00:04:42;10.60;;;2.53;;
25409;SDS011;13339;50.840;4.346;2023-09-19T00:07:08;12.63;;;2.80;;
25409;SDS011;13339;50.840;4.346;2023-09-19T00:09:34;14.60;;;3.20;;
25409;SDS011;13339;50.840;4.346;2023-09-19T00:12:05;12.23;;;3.00;;
25409;SDS011;13339;50.840;4.346;2023-09-19T00:14:31;15.40;;;2.90;;
25409;SDS011;13339;50.840;4.346;2023-09-19T00:17:00;13.27;;;3.00;;
25409;SDS011;13339;50.840;4.346;2023-09-19T00:19:32;15.17;;;3.20;;
25409;SDS011;13339;50.840;4.346;2023-09-19T00:21:58;17.40;;;3.10;;
25409;SDS011;13339;50.840;4.346;2023-09-19T00:24:23;19.00;;;3.07;;
25409;SDS011;13339;50.840;4.346;2023-09-19T00:26:49;12.50;;;3.53;;
25409;SDS011;13339;50.840;4.346;2023-09-19T00:29:14;15.03;;;2.83;;
25409;SDS011;13339;50.840;4.346;2023-09-19T00:31:44;10.03;;;2.87;;
25409;SDS011;13339;50.840;4.346;2023-09-19T00:34:10;13.90;;;2.83;;
25409;SDS011;13339;50.840;4.346;2023-09-19T00:36:38;12.73;;;2.67;;
25409;SDS011;13339;50.840;4.346;2023-09-19T00:39:05;13.33;;;3.50;;
25409;SDS011;13339;50.840;4.346;2023-09-19T00:41:31;17.17;;;3.23;;
25409;SDS011;13339;50.840;4.346;2023-09-19T00:43:58;13.57;;;2.73;;
25409;SDS011;13339;50.840;4.346;2023-09-19T00:46:25;19.73;;;3.53;;
25409;SDS011;13339;50.840;4.346;2023-09-19T00:48:51;18.00;;;3.27;;
25409;SDS011;13339;50.840;4.346;2023-09-19T00:51:17;18.27;;;3.30;;
25409;SDS011;13339;50.840;4.346;2023-09-19T00:53:45;15.67;;;3.20;;
25409;SDS011;13339;50.840;4.346;2023-09-19T00:56:12;16.47;;;3.37;;
25409;SDS011;13339;50.840;4.346;2023-09-19T00:58:38;11.33;;;2.70;;
25409;SDS011;13339;50.840;4.346;2023-09-19T01:01:05;18.07;;;2.97;;
25409;SDS011;13339;50.840;4.346;2023-09-19T01:03:32;13.73;;;3.53;;
25409;SDS011;13339;50.840;4.346;2023-09-19T01:05:59;9.73;;;2.33;;
25409;SDS011;13339;50.840;4.346;2023-09-19T01:08:25;14.77;;;3.07;;
25409;SDS011;13339;50.840;4.346;2023-09-19T01:11:06;16.87;;;3.23;;
25409;SDS011;13339;50.840;4.346;2023-09-19T01:18:55;15.57;;;3.20;;
25409;SDS011;13339;50.840;4.346;2023-09-19T01:24:59;15.90;;;2.93;;
25409;SDS011;13339;50.840;4.346;2023-09-19T01:30:46;10.47;;;3.23;;
25409;SDS011;13339;50.840;4.346;2023-09-19T01:33:16;13.47;;;3.13;;
25409;SDS011;13339;50.840;4.346;2023-09-19T01:35:44;17.77;;;3.20;;
25409;SDS011;13339;50.840;4.346;2023-09-19T01:38:10;13.77;;;2.97;;
25409;SDS011;13339;50.840;4.346;2023-09-19T01:40:43;14.30;;;3.53;;
25409;SDS011;13339;50.840;4.346;2023-09-19T01:43:17;18.93;;;3.50;;
25409;SDS011;13339;50.840;4.346;2023-09-19T01:51:20;17.37;;;3.17;;
25409;SDS011;13339;50.840;4.346;2023-09-19T01:53:58;17.73;;;3.40;;
25409;SDS011;13339;50.840;4.346;2023-09-19T01:56:32;11.37;;;2.67;;
25409;SDS011;13339;50.840;4.346;2023-09-19T01:59:07;14.10;;;2.90;;
25409;SDS011;13339;50.840;4.346;2023-09-19T02:01:37;16.30;;;3.43;;
25409;SDS011;13339;50.840;4.346;2023-09-19T02:04:04;17.00;;;3.40;;
25409;SDS011;13339;50.840;4.346;2023-09-19T02:06:30;16.97;;;2.80;;
25409;SDS011;13339;50.840;4.346;2023-09-19T02:08:58;12.13;;;3.10;;
25409;SDS011;13339;50.840;4.346;2023-09-19T02:11:24;14.53;;;3.17;;
25409;SDS011;13339;50.840;4.346;2023-09-19T02:13:50;19.53;;;4.03;;
25409;SDS011;13339;50.840;4.346;2023-09-19T02:16:19;10.80;;;3.00;;
25409;SDS011;13339;50.840;4.346;2023-09-19T02:18:46;13.90;;;2.97;;
25409;SDS011;13339;50.840;4.346;2023-09-19T02:21:15;19.23;;;3.77;;
25409;SDS011;13339;50.840;4.346;2023-09-19T02:23:42;20.47;;;3.23;;
25409;SDS011;13339;50.840;4.346;2023-09-19T02:26:08;14.50;;;2.83;;
25409;SDS011;13339;50.840;4.346;2023-09-19T02:28:34;19.20;;;3.33;;
25409;SDS011;13339;50.840;4.346;2023-09-19T02:31:00;18.30;;;3.50;;
25409;SDS011;13339;50.840;4.346;2023-09-19T02:33:26;13.27;;;2.93;;
25409;SDS011;13339;50.840;4.346;2023-09-19T02:35:57;10.43;;;3.10;;
25409;SDS011;13339;50.840;4.346;2023-09-19T02:38:23;23.00;;;4.10;;
25409;SDS011;13339;50.840;4.346;2023-09-19T02:40:52;15.87;;;3.73;;
25409;SDS011;13339;50.840;4.346;2023-09-19T02:43:18;9.63;;;2.73;;
25409;SDS011;13339;50.840;4.346;2023-09-19T02:45:47;13.77;;;3.33;;
25409;SDS011;13339;50.840;4.346;2023-09-19T02:48:15;10.43;;;2.70;;
25409;SDS011;13339;50.840;4.346;2023-09-19T02:50:43;16.40;;;3.23;;
25409;SDS011;13339;50.840;4.346;2023-09-19T02:53:09;9.87;;;3.03;;
25409;SDS011;13339;50.840;4.346;2023-09-19T02:55:37;21.97;;;3.83;;
25409;SDS011;13339;50.840;4.346;2023-09-19T02:58:05;13.03;;;3.00;;
25409;SDS011;13339;50.840;4.346;2023-09-19T03:00:33;15.10;;;2.80;;
25409;SDS011;13339;50.840;4.346;2023-09-19T03:03:00;12.47;;;2.73;;
25409;SDS011;13339;50.840;4.346;2023-09-19T03:05:27;16.10;;;3.17;;
25409;SDS011;13339;50.840;4.346;2023-09-19T03:07:55;15.03;;;2.70;;
25409;SDS011;13339;50.840;4.346;2023-09-19T03:10:21;12.90;;;3.33;;
25409;SDS011;13339;50.840;4.346;2023-09-19T03:12:48;12.83;;;3.57;;
25409;SDS011;13339;50.840;4.346;2023-09-19T03:15:14;15.13;;;3.23;;
25409;SDS011;13339;50.840;4.346;2023-09-19T03:17:44;15.47;;;4.03;;
25409;SDS011;13339;50.840;4.346;2023-09-19T03:20:11;17.27;;;3.10;;
25409;SDS011;13339;50.840;4.346;2023-09-19T03:22:38;10.10;;;3.00;;
25409;SDS011;13339;50.840;4.346;2023-09-19T03:25:07;11.67;;;2.90;;
25409;SDS011;13339;50.840;4.346;2023-09-19T03:27:36;10.20;;;2.70;;
25409;SDS011;13339;50.840;4.346;2023-09-19T03:30:03;13.77;;;3.10;;
25409;SDS011;13339;50.840;4.346;2023-09-19T03:32:45;14.30;;;3.10;;
25409;SDS011;13339;50.840;4.346;2023-09-19T03:35:15;14.40;;;3.27;;
25409;SDS011;13339;50.840;4.346;2023-09-19T03:37:41;13.60;;;2.97;;
25409;SDS011;13339;50.840;4.346;2023-09-19T03:40:08;17.13;;;3.80;;
25409;SDS011;13339;50.840;4.346;2023-09-19T03:42:40;17.67;;;3.20;;
25409;SDS011;13339;50.840;4.346;2023-09-19T03:45:07;14.10;;;3.43;;
25409;SDS011;13339;50.840;4.346;2023-09-19T03:47:37;10.60;;;2.93;;
25409;SDS011;13339;50.840;4.346;2023-09-19T03:50:04;14.30;;;2.57;;
25409;SDS011;13339;50.840;4.346;2023-09-19T03:52:30;15.40;;;2.93;;
25409;SDS011;13339;50.840;4.346;2023-09-19T03:54:56;16.97;;;3.87;;
25409;SDS011;13339;50.840;4.346;2023-09-19T03:57:21;12.47;;;3.27;;
25409;SDS011;13339;50.840;4.346;2023-09-19T03:59:47;12.33;;;3.20;;
25409;SDS011;13339;50.840;4.346;2023-09-19T04:02:13;13.97;;;3.20;;
25409;SDS011;13339;50.840;4.346;2023-09-19T04:04:47;15.63;;;3.07;;
25409;SDS011;13339;50.840;4.346;2023-09-19T04:07:13;12.17;;;3.20;;
25409;SDS011;13339;50.840;4.346;2023-09-19T04:09:39;19.17;;;3.33;;
25409;SDS011;13339;50.840;4.346;2023-09-19T04:12:05;14.83;;;3.30;;
25409;SDS011;13339;50.840;4.346;2023-09-19T04:14:30;15.63;;;3.00;;
25409;SDS011;13339;50.840;4.346;2023-09-19T04:16:56;19.90;;;3.27;;
25409;SDS011;13339;50.840;4.346;2023-09-19T04:19:22;15.70;;;3.33;;
25409;SDS011;13339;50.840;4.346;2023-09-19T04:21:47;14.93;;;3.57;;
25409;SDS011;13339;50.840;4.346;2023-09-19T04:24:13;9.50;;;3.07;;
25409;SDS011;13339;50.840;4.346;2023-09-19T04:26:39;17.90;;;4.30;;
25409;SDS011;13339;50.840;4.346;2023-09-19T04:29:04;12.30;;;2.83;;
25409;SDS011;13339;50.840;4.346;2023-09-19T04:31:31;13.07;;;3.20;;
25409;SDS011;13339;50.840;4.346;2023-09-19T04:33:56;17.37;;;2.77;;
25409;SDS011;13339;50.840;4.346;2023-09-19T04:36:24;17.73;;;3.10;;
25409;SDS011;13339;50.840;4.346;2023-09-19T04:38:50;13.13;;;3.03;;
25409;SDS011;13339;50.840;4.346;2023-09-19T04:41:15;17.37;;;2.60;;
25409;SDS011;13339;50.840;4.346;2023-09-19T04:43:41;18.90;;;3.13;;
25409;SDS011;13339;50.840;4.346;2023-09-19T04:46:06;16.37;;;4.00;;
25409;SDS011;13339;50.840;4.346;2023-09-19T04:48:32;10.67;;;3.13;;
25409;SDS011;13339;50.840;4.346;2023-09-19T04:50:59;10.50;;;3.37;;
25409;SDS011;13339;50.840;4.346;2023-09-19T04:53:25;12.30;;;3.27;;
25409;SDS011;13339;50.840;4.346;2023-09-19T04:55:52;17.53;;;3.70;;
25409;SDS011;13339;50.840;4.346;2023-09-19T04:58:20;14.03;;;3.47;;
25409;SDS011;13339;50.840;4.346;2023-09-19T05:00:46;18.43;;;3.27;;
25409;SDS011;13339;50.840;4.346;2023-09-19T05:03:12;16.00;;;2.93;;
25409;SDS011;13339;50.840;4.346;2023-09-19T05:05:37;18.50;;;3.73;;
25409;SDS011;13339;50.840;4.346;2023-09-19T05:08:05;13.33;;;3.13;;
25409;SDS011;13339;50.840;4.346;2023-09-19T05:10:32;13.30;;;3.00;;
25409;SDS011;13339;50.840;4.346;2023-09-19T05:12:57;12.20;;;3.30;;
25409;SDS011;13339;50.840;4.346;2023-09-19T05:15:23;11.83;;;3.47;;
25409;SDS011;13339;50.840;4.346;2023-09-19T05:17:49;13.20;;;3.57;;
25409;SDS011;13339;50.840;4.346;2023-09-19T05:20:16;12.10;;;3.20;;
25409;SDS011;13339;50.840;4.346;2023-09-19T05:23:02;13.90;;;3.17;;
25409;SDS011;13339;50.840;4.346;2023-09-19T05:25:33;16.30;;;3.07;;
25409;SDS011;13339;50.840;4.346;2023-09-19T05:28:04;15.87;;;3.03;;
25409;SDS011;13339;50.840;4.346;2023-09-19T05:30:36;12.93;;;2.90;;
25409;SDS011;13339;50.840;4.346;2023-09-19T05:33:03;16.47;;;3.20;;
25409;SDS011;13339;50.840;4.346;2023-09-19T05:35:30;12.33;;;3.30;;
25409;SDS011;13339;50.840;4.346;2023-09-19T05:37:56;18.60;;;3.23;;
25409;SDS011;13339;50.840;4.346;2023-09-19T05:40:23;12.57;;;2.70;;
25409;SDS011;13339;50.840;4.346;2023-09-19T05:42:50;15.83;;;3.50;;
25409;SDS011;13339;50.840;4.346;2023-09-19T05:45:16;14.07;;;2.87;;
25409;SDS011;13339;50.840;4.346;2023-09-19T05:47:50;26.03;;;4.00;;
25409;SDS011;13339;50.840;4.346;2023-09-19T05:50:17;15.03;;;3.27;;
25409;SDS011;13339;50.840;4.346;2023-09-19T05:52:43;16.27;;;3.37;;
25409;SDS011;13339;50.840;4.346;2023-09-19T05:55:17;12.40;;;2.43;;
25409;SDS011;13339;50.840;4.346;2023-09-19T05:57:43;17.40;;;3.83;;
25409;SDS011;13339;50.840;4.346;2023-09-19T06:00:13;8.80;;;2.33;;
25409;SDS011;13339;50.840;4.346;2023-09-19T06:02:39;13.53;;;2.57;;
25409;SDS011;13339;50.840;4.346;2023-09-19T06:05:05;15.00;;;3.07;;
25409;SDS011;13339;50.840;4.346;2023-09-19T06:07:35;19.67;;;3.10;;
25409;SDS011;13339;50.840;4.346;2023-09-19T06:10:05;14.63;;;2.90;;
25409;SDS011;13339;50.840;4.346;2023-09-19T06:12:44;20.93;;;4.20;;
25409;SDS011;13339;50.840;4.346;2023-09-19T06:15:10;13.90;;;3.00;;
25409;SDS011;13339;50.840;4.346;2023-09-19T06:17:50;17.03;;;3.23;;
25409;SDS011;13339;50.840;4.346;2023-09-19T06:20:20;15.03;;;3.37;;
25409;SDS011;13339;50.840;4.346;2023-09-19T06:22:47;21.13;;;3.50;;
25409;SDS011;13339;50.840;4.346;2023-09-19T06:25:14;16.77;;;3.53;;
25409;SDS011;13339;50.840;4.346;2023-09-19T06:27:53;17.27;;;3.27;;
25409;SDS011;13339;50.840;4.346;2023-09-19T06:30:20;29.30;;;3.30;;
25409;SDS011;13339;50.840;4.346;2023-09-19T06:32:46;19.87;;;3.53;;
25409;SDS011;13339;50.840;4.346;2023-09-19T06:35:13;16.37;;;3.70;;
25409;SDS011;13339;50.840;4.346;2023-09-19T06:37:40;13.03;;;2.67;;
25409;SDS011;13339;50.840;4.346;2023-09-19T06:42:43;17.87;;;3.20;;
25409;SDS011;13339;50.840;4.346;2023-09-19T06:45:10;11.83;;;2.70;;
25409;SDS011;13339;50.840;4.346;2023-09-19T06:47:42;14.97;;;2.80;;
25409;SDS011;13339;50.840;4.346;2023-09-19T06:50:09;14.67;;;3.30;;
25409;SDS011;13339;50.840;4.346;2023-09-19T06:52:39;14.67;;;2.63;;
25409;SDS011;13339;50.840;4.346;2023-09-19T06:55:06;18.13;;;3.77;;
25409;SDS011;13339;50.840;4.346;2023-09-19T06:57:31;15.73;;;3.10;;
25409;SDS011;13339;50.840;4.346;2023-09-19T06:59:57;16.67;;;3.10;;
25409;SDS011;13339;50.840;4.346;2023-09-19T07:02:23;14.40;;;3.20;;
25409;SDS011;13339;50.840;4.346;2023-09-19T07:04:49;19.97;;;3.40;;
25409;SDS011;13339;50.840;4.346;2023-09-19T07:07:14;12.97;;;3.13;;
25409;SDS011;13339;50.840;4.346;2023-09-19T07:09:41;16.80;;;3.60;;
25409;SDS011;13339;50.840;4.346;2023-09-19T07:12:07;18.77;;;3.33;;
25409;SDS011;13339;50.840;4.346;2023-09-19T07:14:33;12.60;;;3.20;;
25409;SDS011;13339;50.840;4.346;2023-09-19T07:16:59;17.87;;;2.77;;
25409;SDS011;13339;50.840;4.346;2023-09-19T07:19:28;16.03;;;3.20;;
25409;SDS011;13339;50.840;4.346;2023-09-19T07:21:55;11.20;;;3.27;;
25409;SDS011;13339;50.840;4.346;2023-09-19T07:24:20;10.90;;;2.80;;
25409;SDS011;13339;50.840;4.346;2023-09-19T07:26:49;13.20;;;3.43;;
25409;SDS011;13339;50.840;4.346;2023-09-19T07:29:15;13.00;;;2.73;;
25409;SDS011;13339;50.840;4.346;2023-09-19T07:31:40;15.73;;;3.60;;
25409;SDS011;13339;50.840;4.346;2023-09-19T07:34:06;18.33;;;3.73;;
25409;SDS011;13339;50.840;4.346;2023-09-19T07:36:34;10.10;;;3.03;;
25409;SDS011;13339;50.840;4.346;2023-09-19T07:39:00;10.53;;;2.43;;
25409;SDS011;13339;50.840;4.346;2023-09-19T07:41:25;14.93;;;3.67;;
25409;SDS011;13339;50.840;4.346;2023-09-19T07:43:52;20.53;;;3.50;;
25409;SDS011;13339;50.840;4.346;2023-09-19T07:46:17;14.57;;;3.70;;
25409;SDS011;13339;50.840;4.346;2023-09-19T07:48:43;14.67;;;3.50;;
25409;SDS011;13339;50.840;4.346;2023-09-19T07:51:13;11.03;;;2.50;;
25409;SDS011;13339;50.840;4.346;2023-09-19T07:53:41;16.13;;;3.50;;
25409;SDS011;13339;50.840;4.346;2023-09-19T07:56:08;15.60;;;3.13;;
25409;SDS011;13339;50.840;4.346;2023-09-19T07:58:35;11.57;;;2.77;;
25409;SDS011;13339;50.840;4.346;2023-09-19T08:01:08;14.60;;;2.97;;
25409;SDS011;13339;50.840;4.346;2023-09-19T08:03:35;24.07;;;4.03;;
25409;SDS011;13339;50.840;4.346;2023-09-19T08:06:06;15.13;;;3.17;;
25409;SDS011;13339;50.840;4.346;2023-09-19T08:08:32;14.17;;;3.07;;
25409;SDS011;13339;50.840;4.346;2023-09-19T08:11:05;16.87;;;2.87;;
25409;SDS011;13339;50.840;4.346;2023-09-19T08:13:38;16.77;;;3.00;;
25409;SDS011;13339;50.840;4.346;2023-09-19T08:16:08;10.87;;;2.73;;
25409;SDS011;13339;50.840;4.346;2023-09-19T08:18:37;13.63;;;3.33;;
25409;SDS011;13339;50.840;4.346;2023-09-19T08:21:05;17.60;;;2.90;;
25409;SDS011;13339;50.840;4.346;2023-09-19T08:23:32;16.27;;;3.23;;
25409;SDS011;13339;50.840;4.346;2023-09-19T08:25:58;19.10;;;3.47;;
25409;SDS011;13339;50.840;4.346;2023-09-19T08:28:28;19.13;;;3.97;;
25409;SDS011;13339;50.840;4.346;2023-09-19T08:30:54;17.33;;;3.00;;
25409;SDS011;13339;50.840;4.346;2023-09-19T08:33:20;15.80;;;3.13;;
25409;SDS011;13339;50.840;4.346;2023-09-19T08:35:46;17.37;;;3.63;;
25409;SDS011;13339;50.840;4.346;2023-09-19T08:38:12;15.33;;;2.97;;
25409;SDS011;13339;50.840;4.346;2023-09-19T08:40:39;16.77;;;2.97;;
25409;SDS011;13339;50.840;4.346;2023-09-19T08:43:07;12.97;;;2.80;;
25409;SDS011;13339;50.840;4.346;2023-09-19T08:45:33;16.50;;;3.00;;
25409;SDS011;13339;50.840;4.346;2023-09-19T08:50:43;30.23;;;4.30;;
25409;SDS011;13339;50.840;4.346;2023-09-19T08:53:16;14.97;;;2.87;;
25409;SDS011;13339;50.840;4.346;2023-09-19T08:56:05;17.73;;;3.60;;
25409;SDS011;13339;50.840;4.346;2023-09-19T08:58:39;18.00;;;3.20;;
25409;SDS011;13339;50.840;4.346;2023-09-19T09:01:11;10.10;;;2.80;;
25409;SDS011;13339;50.840;4.346;2023-09-19T09:03:39;13.77;;;2.90;;
25409;SDS011;13339;50.840;4.346;2023-09-19T09:06:08;14.20;;;3.17;;
25409;SDS011;13339;50.840;4.346;2023-09-19T09:08:36;16.67;;;3.17;;
25409;SDS011;13339;50.840;4.346;2023-09-19T09:11:02;10.13;;;3.00;;
25409;SDS011;13339;50.840;4.346;2023-09-19T09:13:28;13.73;;;2.87;;
25409;SDS011;13339;50.840;4.346;2023-09-19T09:15:54;13.43;;;3.03;;
25409;SDS011;13339;50.840;4.346;2023-09-19T09:18:20;17.30;;;2.83;;
25409;SDS011;13339;50.840;4.346;2023-09-19T09:20:46;15.80;;;2.73;;
25409;SDS011;13339;50.840;4.346;2023-09-19T09:23:13;14.00;;;3.10;;
25409;SDS011;13339;50.840;4.346;2023-09-19T09:28:21;13.67;;;2.33;;
25409;SDS011;13339;50.840;4.346;2023-09-19T09:30:49;18.63;;;2.67;;
25409;SDS011;13339;50.840;4.346;2023-09-19T09:33:15;10.87;;;2.73;;
25409;SDS011;13339;50.840;4.346;2023-09-19T09:36:00;12.17;;;2.70;;
25409;SDS011;13339;50.840;4.346;2023-09-19T09:38:28;12.13;;;2.53;;
25409;SDS011;13339;50.840;4.346;2023-09-19T09:41:08;11.10;;;2.70;;
25409;SDS011;13339;50.840;4.346;2023-09-19T09:43:38;14.47;;;2.40;;
25409;SDS011;13339;50.840;4.346;2023-09-19T09:51:37;19.27;;;2.60;;
25409;SDS011;13339;50.840;4.346;2023-09-19T09:54:13;7.90;;;2.40;;
25409;SDS011;13339;50.840;4.346;2023-09-19T09:56:53;10.90;;;2.30;;
25409;SDS011;13339;50.840;4.346;2023-09-19T09:59:39;13.80;;;2.30;;
25409;SDS011;13339;50.840;4.346;2023-09-19T10:05:11;8.53;;;2.17;;
25409;SDS011;13339;50.840;4.346;2023-09-19T10:07:49;8.07;;;2.40;;
25409;SDS011;13339;50.840;4.346;2023-09-19T10:13:08;10.87;;;2.30;;
25409;SDS011;13339;50.840;4.346;2023-09-19T10:15:42;9.13;;;2.87;;
25409;SDS011;13339;50.840;4.346;2023-09-19T10:18:16;10.87;;;2.10;;
25409;SDS011;13339;50.840;4.346;2023-09-19T10:20:48;12.87;;;2.27;;
25409;SDS011;13339;50.840;4.346;2023-09-19T10:23:16;12.50;;;2.53;;
25409;SDS011;13339;50.840;4.346;2023-09-19T10:25:47;8.37;;;2.37;;
25409;SDS011;13339;50.840;4.346;2023-09-19T10:28:15;10.27;;;2.20;;
25409;SDS011;13339;50.840;4.346;2023-09-19T10:30:47;9.27;;;1.83;;
25409;SDS011;13339;50.840;4.346;2023-09-19T10:33:22;11.90;;;1.87;;
25409;SDS011;13339;50.840;4.346;2023-09-19T10:35:51;5.43;;;1.90;;
25409;SDS011;13339;50.840;4.346;2023-09-19T10:38:22;11.40;;;2.33;;
25409;SDS011;13339;50.840;4.346;2023-09-19T10:40:50;11.83;;;2.10;;
25409;SDS011;13339;50.840;4.346;2023-09-19T10:43:18;14.87;;;2.20;;
25409;SDS011;13339;50.840;4.346;2023-09-19T10:45:46;12.20;;;1.90;;
25409;SDS011;13339;50.840;4.346;2023-09-19T10:48:15;12.20;;;1.87;;
25409;SDS011;13339;50.840;4.346;2023-09-19T10:50:49;8.97;;;2.03;;
25409;SDS011;13339;50.840;4.346;2023-09-19T10:53:24;7.07;;;1.90;;
25409;SDS011;13339;50.840;4.346;2023-09-19T10:55:53;6.90;;;1.80;;
25409;SDS011;13339;50.840;4.346;2023-09-19T10:58:26;9.97;;;2.10;;
25409;SDS011;13339;50.840;4.346;2023-09-19T11:00:55;9.97;;;1.83;;
25409;SDS011;13339;50.840;4.346;2023-09-19T11:03:35;7.63;;;1.90;;
25409;SDS011;13339;50.840;4.346;2023-09-19T11:06:12;3.57;;;1.30;;
25409;SDS011;13339;50.840;4.346;2023-09-19T11:08:52;5.53;;;1.67;;
25409;SDS011;13339;50.840;4.346;2023-09-19T11:30:40;5.77;;;1.47;;
25409;SDS011;13339;50.840;4.346;2023-09-19T11:36:06;5.63;;;1.47;;
25409;SDS011;13339;50.840;4.346;2023-09-19T11:46:34;9.47;;;1.57;;
25409;SDS011;13339;50.840;4.346;2023-09-19T11:49:16;5.13;;;1.37;;
25409;SDS011;13339;50.840;4.346;2023-09-19T11:51:48;9.57;;;1.60;;
25409;SDS011;13339;50.840;4.346;2023-09-19T11:54:19;9.87;;;1.93;;
25409;SDS011;13339;50.840;4.346;2023-09-19T11:56:48;4.93;;;1.20;;
25409;SDS011;13339;50.840;4.346;2023-09-19T11:59:22;12.57;;;2.27;;
25409;SDS011;13339;50.840;4.346;2023-09-19T12:01:52;7.43;;;1.97;;
25409;SDS011;13339;50.840;4.346;2023-09-19T12:04:43;10.10;;;1.67;;
25409;SDS011;13339;50.840;4.346;2023-09-19T12:07:13;8.03;;;1.70;;
25409;SDS011;13339;50.840;4.346;2023-09-19T12:09:44;11.87;;;2.10;;
25409;SDS011;13339;50.840;4.346;2023-09-19T12:12:23;15.10;;;1.90;;
25409;SDS011;13339;50.840;4.346;2023-09-19T12:14:52;9.40;;;1.77;;
25409;SDS011;13339;50.840;4.346;2023-09-19T12:17:18;7.13;;;1.67;;
25409;SDS011;13339;50.840;4.346;2023-09-19T12:19:51;7.73;;;1.50;;
25409;SDS011;13339;50.840;4.346;2023-09-19T12:22:21;5.47;;;1.40;;
25409;SDS011;13339;50.840;4.346;2023-09-19T12:24:47;8.50;;;1.73;;
25409;SDS011;13339;50.840;4.346;2023-09-19T12:27:13;5.50;;;1.53;;
25409;SDS011;13339;50.840;4.346;2023-09-19T12:32:14;7.27;;;1.33;;
25409;SDS011;13339;50.840;4.346;2023-09-19T12:34:42;3.83;;;1.10;;
25409;SDS011;13339;50.840;4.346;2023-09-19T12:37:15;4.27;;;1.50;;
25409;SDS011;13339;50.840;4.346;2023-09-19T12:39:45;8.20;;;1.60;;
25409;SDS011;13339;50.840;4.346;2023-09-19T12:42:14;6.50;;;1.70;;
25409;SDS011;13339;50.840;4.346;2023-09-19T12:44:41;4.73;;;1.53;;
25409;SDS011;13339;50.840;4.346;2023-09-19T12:47:15;8.47;;;1.50;;
25409;SDS011;13339;50.840;4.346;2023-09-19T12:52:46;10.87;;;1.93;;
25409;SDS011;13339;50.840;4.346;2023-09-19T12:55:20;8.20;;;1.50;;
25409;SDS011;13339;50.840;4.346;2023-09-19T13:00:32;3.97;;;1.70;;
25409;SDS011;13339;50.840;4.346;2023-09-19T13:03:15;5.50;;;1.33;;
25409;SDS011;13339;50.840;4.346;2023-09-19T13:05:50;7.13;;;1.80;;
25409;SDS011;13339;50.840;4.346;2023-09-19T13:08:30;6.53;;;1.60;;
25409;SDS011;13339;50.840;4.346;2023-09-19T13:13:48;7.37;;;1.90;;
25409;SDS011;13339;50.840;4.346;2023-09-19T13:16:20;5.83;;;1.63;;
25409;SDS011;13339;50.840;4.346;2023-09-19T13:18:50;7.50;;;1.97;;
25409;SDS011;13339;50.840;4.346;2023-09-19T13:21:20;5.67;;;1.60;;
25409;SDS011;13339;50.840;4.346;2023-09-19T13:23:53;9.03;;;1.63;;
25409;SDS011;13339;50.840;4.346;2023-09-19T13:26:27;5.93;;;1.47;;
25409;SDS011;13339;50.840;4.346;2023-09-19T13:28:56;4.40;;;1.53;;
25409;SDS011;13339;50.840;4.346;2023-09-19T13:31:21;10.97;;;1.67;;
25409;SDS011;13339;50.840;4.346;2023-09-19T13:33:48;5.87;;;2.07;;
25409;SDS011;13339;50.840;4.346;2023-09-19T13:36:15;6.00;;;1.57;;
25409;SDS011;13339;50.840;4.346;2023-09-19T13:38:41;6.37;;;1.53;;
25409;SDS011;13339;50.840;4.346;2023-09-19T13:41:10;7.73;;;1.33;;
25409;SDS011;13339;50.840;4.346;2023-09-19T13:43:39;7.03;;;1.50;;
25409;SDS011;13339;50.840;4.346;2023-09-19T13:46:05;8.63;;;1.80;;
25409;SDS011;13339;50.840;4.346;2023-09-19T13:48:37;6.63;;;1.90;;
25409;SDS011;13339;50.840;4.346;2023-09-19T13:51:03;6.50;;;1.77;;
25409;SDS011;13339;50.840;4.346;2023-09-19T13:53:29;9.20;;;2.20;;
25409;SDS011;13339;50.840;4.346;2023-09-19T13:55:55;8.10;;;1.83;;
25409;SDS011;13339;50.840;4.346;2023-09-19T13:58:21;8.10;;;1.80;;
25409;SDS011;13339;50.840;4.346;2023-09-19T14:00:48;7.47;;;1.73;;
25409;SDS011;13339;50.840;4.346;2023-09-19T14:03:14;7.53;;;1.60;;
25409;SDS011;13339;50.840;4.346;2023-09-19T14:05:39;6.63;;;1.90;;
25409;SDS011;13339;50.840;4.346;2023-09-19T14:08:05;8.87;;;1.60;;
25409;SDS011;13339;50.840;4.346;2023-09-19T14:10:31;10.20;;;1.87;;
25409;SDS011;13339;50.840;4.346;2023-09-19T14:12:56;5.20;;;1.40;;
25409;SDS011;13339;50.840;4.346;2023-09-19T14:15:26;4.80;;;1.50;;
25409;SDS011;13339;50.840;4.346;2023-09-19T14:17:57;10.40;;;2.10;;
25409;SDS011;13339;50.840;4.346;2023-09-19T14:20:24;9.57;;;1.93;;
25409;SDS011;13339;50.840;4.346;2023-09-19T14:22:51;5.67;;;1.83;;
25409;SDS011;13339;50.840;4.346;2023-09-19T14:25:18;13.40;;;2.20;;
25409;SDS011;13339;50.840;4.346;2023-09-19T14:27:43;10.03;;;1.90;;
25409;SDS011;13339;50.840;4.346;2023-09-19T14:30:09;8.80;;;1.80;;
25409;SDS011;13339;50.840;4.346;2023-09-19T14:32:35;9.30;;;1.77;;
25409;SDS011;13339;50.840;4.346;2023-09-19T14:35:02;9.03;;;2.30;;
25409;SDS011;13339;50.840;4.346;2023-09-19T14:37:27;5.93;;;2.00;;
25409;SDS011;13339;50.840;4.346;2023-09-19T14:39:53;5.93;;;2.37;;
25409;SDS011;13339;50.840;4.346;2023-09-19T14:42:19;7.93;;;2.47;;
25409;SDS011;13339;50.840;4.346;2023-09-19T14:44:45;5.77;;;1.37;;
25409;SDS011;13339;50.840;4.346;2023-09-19T14:47:13;9.17;;;2.57;;
25409;SDS011;13339;50.840;4.346;2023-09-19T14:49:39;7.00;;;2.43;;
25409;SDS011;13339;50.840;4.346;2023-09-19T14:52:08;8.23;;;1.90;;
25409;SDS011;13339;50.840;4.346;2023-09-19T14:54:35;10.93;;;1.90;;
25409;SDS011;13339;50.840;4.346;2023-09-19T14:57:03;11.87;;;2.00;;
25409;SDS011;13339;50.840;4.346;2023-09-19T14:59:32;10.20;;;2.50;;
25409;SDS011;13339;50.840;4.346;2023-09-19T15:02:01;9.33;;;1.97;;
25409;SDS011;13339;50.840;4.346;2023-09-19T15:04:30;5.63;;;1.57;;
25409;SDS011;13339;50.840;4.346;2023-09-19T15:06:56;11.43;;;2.00;;
25409;SDS011;13339;50.840;4.346;2023-09-19T15:09:22;4.77;;;1.80;;
25409;SDS011;13339;50.840;4.346;2023-09-19T15:11:52;7.53;;;2.27;;
25409;SDS011;13339;50.840;4.346;2023-09-19T15:14:18;4.97;;;1.73;;
25409;SDS011;13339;50.840;4.346;2023-09-19T15:16:44;6.73;;;2.43;;
25409;SDS011;13339;50.840;4.346;2023-09-19T15:19:10;4.37;;;2.17;;
25409;SDS011;13339;50.840;4.346;2023-09-19T15:21:36;8.93;;;2.47;;
25409;SDS011;13339;50.840;4.346;2023-09-19T15:24:05;10.03;;;2.43;;
25409;SDS011;13339;50.840;4.346;2023-09-19T15:26:34;9.83;;;2.30;;
25409;SDS011;13339;50.840;4.346;2023-09-19T15:29:04;5.30;;;1.90;;
25409;SDS011;13339;50.840;4.346;2023-09-19T15:31:31;7.37;;;1.90;;
25409;SDS011;13339;50.840;4.346;2023-09-19T15:33:57;7.77;;;2.10;;
25409;SDS011;13339;50.840;4.346;2023-09-19T15:36:22;9.37;;;1.77;;
25409;SDS011;13339;50.840;4.346;2023-09-19T15:41:32;12.50;;;2.10;;
25409;SDS011;13339;50.840;4.346;2023-09-19T15:43:59;6.67;;;2.47;;
25409;SDS011;13339;50.840;4.346;2023-09-19T15:46:29;9.53;;;2.10;;
25409;SDS011;13339;50.840;4.346;2023-09-19T15:48:56;4.70;;;1.90;;
25409;SDS011;13339;50.840;4.346;2023-09-19T15:51:23;11.43;;;2.10;;
25409;SDS011;13339;50.840;4.346;2023-09-19T15:53:50;5.10;;;1.90;;
25409;SDS011;13339;50.840;4.346;2023-09-19T15:56:18;9.17;;;1.90;;
25409;SDS011;13339;50.840;4.346;2023-09-19T15:58:48;8.80;;;2.50;;
25409;SDS011;13339;50.840;4.346;2023-09-19T16:01:20;4.90;;;1.83;;
25409;SDS011;13339;50.840;4.346;2023-09-19T16:03:47;11.13;;;2.37;;
25409;SDS011;13339;50.840;4.346;2023-09-19T16:06:23;7.23;;;2.40;;
25409;SDS011;13339;50.840;4.346;2023-09-19T16:08:54;5.77;;;1.83;;